Huvudsida
METAR-TAF:

METAR-TAF

Flygplatser :

Tolmatjovos flygplats

Novosibirsk, Ryssland

latitud: 55-01N, longitud: 082-38E, höjd: 111 m

Aktuellt väderrapport

Denna rapport gjordes för 22 minuter sedan, klockan 15:00 UTC
Vind 6 kt från väst/sydväst
Temperatur 14°C
Fuktighet 77%
Tryck 1025 hPa
Sikt 10 km eller mer
Inga moln under 1 500 m eller inga cumulonimbus

METAR: UNNT 261500Z 25003MPS CAVOK 14/10 Q1025 R25/090070 R16/090070 NOSIG RMK QFE758/1011

Tid: 22:22 (15:22 UTC)

Väderprognos

Denna rapport gjordes för 50 minuter sedan, klockan 14:32 UTC
Prognos gäller från 26 kl. 15 UTC till 27 kl. 15 UTC
Vind 6 kt från sydväst i byarna ända upp till 16 kt
Sikt 10 km eller mer
Inga moln under 1 500 m eller inga cumulonimbus
Temporärt
från 26 kl. 15 UTC till 26 kl. 20 UTC
Sikt: 1500 m
fuktdis
Temporärt
från 26 kl. 20 UTC till 27 kl. 03 UTC
Sikt: 0300 m
Spridda moln på en höjd av 200 ft
dimma

TAF: UNNT 261432Z 2615/2715 23003G08MPS CAVOK TEMPO 2615/2620 1500 BR TEMPO 2620/2703 0300 FG SCT002

Aktuella väderrapporter och prognoser från 4000 flygplatser (METAR- och TAF-rapporter).

De tillgängliga stationerna syns som gula och röda prickar på kartan.

För musen över prickarna för att se namnen på stationerna.

Klicka sedan för att få väderrapporter och prognoser.

För att ändra kartan: Klicka på de gröna knapparna med ett svart kors på för att zooma in; den gröna knappen med ett streck på för att zooma ut; eller på de gröna pilarna för angränsande kartor.


METAR-TAF: